Time;durP1;ratioP1;P1;durP2;ratioP2;P2;SDS_P1;SDS_P2;PMS_P1;PMS_P2;Temp;Humidity;BMP_temperature;BMP_pressure;BME280_temperature;BME280_humidity;BME280_pressure;Samples;Min_cycle;Max_cycle;Signal;HPM_P1;HPM_P2
2021/06/11 00:01:05;;;;;;;1.20;1.20;;;16.70;99.90;;;;;;5057780;28;20040;-64
2021/06/11 00:03:31;;;;;;;1.23;1.13;;;16.60;99.90;;;;;;5058086;28;20028;-65
2021/06/11 00:05:57;;;;;;;1.95;1.23;;;16.60;99.90;;;;;;5057866;28;20494;-64
2021/06/11 00:08:23;;;;;;;3.17;1.67;;;16.60;99.90;;;;;;5057580;28;20071;-64
2021/06/11 00:10:49;;;;;;;2.20;1.20;;;16.60;99.90;;;;;;5057681;28;20021;-64
2021/06/11 00:13:15;;;;;;;1.95;1.40;;;16.50;99.90;;;;;;5057959;28;20025;-65
2021/06/11 00:15:41;;;;;;;1.42;1.33;;;16.50;99.90;;;;;;5057575;28;20025;-64
2021/06/11 00:18:07;;;;;;;2.17;1.45;;;16.50;99.90;;;;;;5057313;28;20021;-64
2021/06/11 00:20:33;;;;;;;2.47;2.03;;;16.40;99.90;;;;;;5057464;28;20036;-64
2021/06/11 00:22:59;;;;;;;2.20;1.88;;;16.40;99.90;;;;;;5057364;28;20029;-65
2021/06/11 00:25:26;;;;;;;1.88;1.40;;;16.40;99.90;;;;;;5057174;28;20417;-64
2021/06/11 00:27:54;;;;;;;1.50;1.40;;;16.40;99.90;;;;;;5057344;28;20090;-64
2021/06/11 00:30:21;;;;;;;1.27;1.13;;;16.40;99.90;;;;;;5057593;28;20037;-65
2021/06/11 00:32:47;;;;;;;1.65;1.55;;;16.40;99.90;;;;;;5057397;28;20396;-65
2021/06/11 00:35:14;;;;;;;1.55;1.45;;;16.30;99.90;;;;;;5057269;28;20064;-65
2021/06/11 00:37:40;;;;;;;3.63;1.73;;;16.30;99.90;;;;;;5056995;28;20124;-65
2021/06/11 00:40:08;;;;;;;1.65;1.55;;;16.20;99.90;;;;;;5057025;28;20056;-64
2021/06/11 00:42:34;;;;;;;1.70;1.60;;;16.20;99.90;;;;;;5057205;28;20048;-64
2021/06/11 00:45:01;;;;;;;1.63;1.52;;;16.20;99.90;;;;;;5057041;28;20032;-65
2021/06/11 00:47:27;;;;;;;3.33;2.08;;;16.20;99.90;;;;;;5057301;28;20029;-65
2021/06/11 00:49:53;;;;;;;1.55;1.45;;;16.10;99.90;;;;;;5057188;28;20029;-64
2021/06/11 00:52:19;;;;;;;2.15;1.60;;;16.20;99.90;;;;;;5057033;28;20021;-65
2021/06/11 00:54:45;;;;;;;1.60;1.50;;;16.10;99.90;;;;;;5056776;28;20400;-65
2021/06/11 00:57:12;;;;;;;1.92;1.63;;;16.20;99.90;;;;;;5057006;28;20123;-64
2021/06/11 00:59:43;;;;;;;2.17;2.03;;;16.20;99.90;;;;;;5056725;28;20032;-65
2021/06/11 01:02:10;;;;;;;1.80;1.70;;;16.20;99.90;;;;;;5056873;28;20106;-65
2021/06/11 01:04:36;;;;;;;1.60;1.50;;;16.10;99.90;;;;;;5056802;28;20025;-65
2021/06/11 01:07:03;;;;;;;1.90;1.80;;;16.10;99.90;;;;;;5056255;28;20109;-65
2021/06/11 01:09:31;;;;;;;1.92;1.73;;;16.10;99.90;;;;;;5056873;28;20393;-65
2021/06/11 01:11:57;;;;;;;1.95;1.75;;;16.10;99.90;;;;;;5056969;28;20477;-64
2021/06/11 01:14:24;;;;;;;1.88;1.77;;;16.10;99.90;;;;;;5057011;28;20032;-65
2021/06/11 01:16:50;;;;;;;1.95;1.80;;;16.10;99.90;;;;;;5055172;28;20611;-64
2021/06/11 01:19:23;;;;;;;3.58;1.90;;;16.10;99.90;;;;;;5056630;28;20051;-65
2021/06/11 01:22:00;;;;;;;2.45;1.85;;;16.10;99.90;;;;;;5056330;28;20100;-64
2021/06/11 01:24:30;;;;;;;2.53;1.90;;;16.00;99.90;;;;;;5056693;28;20175;-64
2021/06/11 01:26:57;;;;;;;1.88;1.77;;;16.00;99.90;;;;;;5056553;28;20029;-64
2021/06/11 01:29:27;;;;;;;2.00;1.80;;;16.00;99.90;;;;;;5056403;28;20036;-64
2021/06/11 01:31:56;;;;;;;2.85;2.15;;;16.10;99.90;;;;;;5056454;28;20024;-64
2021/06/11 01:34:28;;;;;;;1.90;1.77;;;16.10;99.90;;;;;;5056780;28;20037;-64
2021/06/11 01:37:19;;;;;;;2.75;1.95;;;16.10;99.90;;;;;;5055981;28;20440;-64
2021/06/11 01:39:51;;;;;;;2.40;2.20;;;16.10;99.90;;;;;;5055764;28;20401;-64
2021/06/11 01:42:17;;;;;;;2.47;1.90;;;16.10;99.90;;;;;;5056631;28;20025;-64
2021/06/11 01:44:46;;;;;;;2.05;1.85;;;16.10;99.90;;;;;;5056218;28;20051;-64
2021/06/11 01:47:13;;;;;;;2.17;1.98;;;16.10;99.90;;;;;;5055153;28;20040;-64
2021/06/11 01:49:42;;;;;;;6.20;2.33;;;16.10;99.90;;;;;;5056415;28;20064;-64
2021/06/11 01:52:09;;;;;;;2.45;2.25;;;16.10;99.90;;;;;;5056294;28;20021;-64
2021/06/11 01:54:38;;;;;;;2.45;2.22;;;16.10;99.90;;;;;;5056068;28;20056;-64
2021/06/11 01:57:05;;;;;;;5.40;2.30;;;16.00;99.90;;;;;;5056563;28;20028;-64
2021/06/11 01:59:33;;;;;;;2.55;2.35;;;16.00;99.90;;;;;;5056095;28;20025;-64
2021/06/11 02:02:01;;;;;;;2.90;2.05;;;16.00;99.90;;;;;;5056524;28;20024;-64
2021/06/11 02:04:27;;;;;;;3.58;2.40;;;16.00;99.90;;;;;;5056241;28;20036;-65
2021/06/11 02:06:54;;;;;;;2.40;2.20;;;16.00;99.90;;;;;;5056071;28;20021;-64
2021/06/11 02:09:21;;;;;;;2.47;2.28;;;16.00;99.90;;;;;;5055980;28;20033;-64
2021/06/11 02:11:48;;;;;;;2.38;2.17;;;16.00;99.90;;;;;;5056275;28;20355;-64
2021/06/11 02:14:16;;;;;;;3.38;2.45;;;16.10;99.90;;;;;;5055049;28;20032;-64
2021/06/11 02:16:44;;;;;;;3.00;2.80;;;16.10;99.90;;;;;;5056133;28;20021;-65
2021/06/11 02:19:11;;;;;;;2.67;2.47;;;16.00;99.90;;;;;;5059804;28;20032;-64
2021/06/11 02:21:38;;;;;;;3.80;3.17;;;16.00;99.90;;;;;;5059692;28;20162;-65
2021/06/11 02:24:06;;;;;;;3.20;2.90;;;16.00;99.90;;;;;;5059496;28;20080;-64
2021/06/11 02:26:32;;;;;;;2.83;2.55;;;16.00;99.90;;;;;;5059670;28;20100;-64
2021/06/11 02:28:59;;;;;;;3.72;3.00;;;16.00;99.90;;;;;;5059761;28;20033;-64
2021/06/11 02:31:25;;;;;;;3.88;3.45;;;16.00;99.90;;;;;;5059633;28;20028;-64
2021/06/11 02:33:51;;;;;;;5.40;3.75;;;15.90;99.90;;;;;;5059815;28;20063;-64
2021/06/11 02:36:17;;;;;;;3.53;2.80;;;16.00;99.90;;;;;;5059661;28;20025;-64
2021/06/11 02:38:43;;;;;;;4.05;3.30;;;16.00;99.90;;;;;;5059226;28;20021;-65
2021/06/11 02:41:11;;;;;;;3.17;2.90;;;16.00;99.90;;;;;;5059459;28;20423;-64
2021/06/11 02:43:39;;;;;;;3.90;3.58;;;16.00;99.90;;;;;;5059520;28;20024;-64
2021/06/11 02:46:05;;;;;;;4.15;3.08;;;16.00;99.90;;;;;;5059242;28;20025;-64
2021/06/11 02:49:02;;;;;;;4.05;3.13;;;16.10;99.90;;;;;;5059596;28;20492;-65
2021/06/11 02:51:34;;;;;;;;;;;16.10;99.90;;;;;;5059732;28;20033;-65
2021/06/11 02:54:02;;;;;;;3.25;2.95;;;16.10;99.90;;;;;;5058876;28;19904;-65
2021/06/11 02:56:38;;;;;;;3.83;2.72;;;16.00;99.90;;;;;;5059480;28;20017;-64
2021/06/11 02:59:05;;;;;;;;;;;16.00;99.90;;;;;;5059433;28;20032;-65
2021/06/11 03:01:35;;;;;;;3.45;2.85;;;16.10;99.90;;;;;;5059305;28;19905;-64
2021/06/11 03:04:03;;;;;;;3.78;3.47;;;16.10;99.90;;;;;;5059062;28;20024;-65
2021/06/11 03:06:31;;;;;;;3.97;3.40;;;15.90;99.90;;;;;;5059115;28;20075;-65
2021/06/11 03:08:59;;;;;;;5.72;2.85;;;15.90;99.90;;;;;;5058504;28;20036;-64
2021/06/11 03:11:36;;;;;;;5.80;3.58;;;15.90;99.90;;;;;;5059336;28;20025;-65
2021/06/11 03:14:03;;;;;;;4.25;3.85;;;15.80;99.90;;;;;;5058734;28;20036;-64
2021/06/11 03:16:30;;;;;;;3.80;3.35;;;15.70;99.90;;;;;;5058687;28;20358;-64
2021/06/11 03:19:06;;;;;;;4.18;3.75;;;15.70;99.90;;;;;;5058948;28;20036;-64
2021/06/11 03:21:46;;;;;;;5.78;3.88;;;15.70;99.90;;;;;;5058751;28;20070;-64
2021/06/11 03:24:15;;;;;;;4.95;4.00;;;15.60;99.90;;;;;;5058599;28;20412;-64
2021/06/11 03:26:52;;;;;;;4.28;3.83;;;15.60;99.90;;;;;;5058474;28;20029;-64
2021/06/11 03:29:31;;;;;;;5.38;3.70;;;15.60;99.90;;;;;;5058398;28;20040;-65
2021/06/11 03:32:01;;;;;;;6.53;4.25;;;15.70;99.90;;;;;;5058614;28;20021;-64
2021/06/11 03:34:34;;;;;;;6.35;4.28;;;15.50;99.90;;;;;;5058842;28;20022;-64
2021/06/11 03:37:06;;;;;;;4.40;4.00;;;15.60;99.90;;;;;;5058165;28;20021;-64
2021/06/11 03:39:42;;;;;;;5.47;4.22;;;15.50;99.90;;;;;;5058448;28;20033;-65
2021/06/11 03:42:11;;;;;;;5.38;4.72;;;15.60;99.90;;;;;;5058500;28;20029;-64
2021/06/11 03:44:47;;;;;;;7.22;4.28;;;15.50;99.90;;;;;;5058389;28;20028;-64
2021/06/11 03:47:15;;;;;;;5.28;4.50;;;15.50;99.90;;;;;;5058394;28;20028;-64
2021/06/11 03:49:43;;;;;;;12.40;4.93;;;15.50;99.90;;;;;;5058099;28;20112;-64
2021/06/11 03:52:11;;;;;;;7.93;4.72;;;15.50;99.90;;;;;;5057919;28;20028;-64
2021/06/11 03:54:44;;;;;;;4.57;4.18;;;15.50;99.90;;;;;;5057785;28;20550;-65
2021/06/11 03:57:12;;;;;;;6.57;4.95;;;15.40;99.90;;;;;;5057955;28;20548;-65
2021/06/11 03:59:40;;;;;;;5.75;4.97;;;15.30;99.90;;;;;;5057977;28;20032;-65
2021/06/11 04:02:06;;;;;;;7.28;4.38;;;15.20;99.90;;;;;;5057964;28;20041;-65
2021/06/11 04:04:33;;;;;;;6.53;4.32;;;15.20;99.90;;;;;;5058043;28;20029;-64
2021/06/11 04:07:28;;;;;;;6.00;4.95;;;15.10;99.90;;;;;;5057551;28;20393;-65
2021/06/11 04:10:10;;;;;;;5.85;5.00;;;15.20;99.90;;;;;;5058019;28;20094;-64
2021/06/11 04:13:00;;;;;;;5.45;4.90;;;15.10;99.90;;;;;;5057765;28;20135;-64
2021/06/11 04:15:31;;;;;;;6.22;5.55;;;15.10;99.90;;;;;;5066424;28;20045;-64
2021/06/11 04:18:03;;;;;;;7.40;5.18;;;15.00;99.90;;;;;;5057641;28;20021;-64
2021/06/11 04:20:29;;;;;;;7.03;4.72;;;15.00;99.90;;;;;;5057535;28;20082;-64
2021/06/11 04:22:59;;;;;;;5.90;4.57;;;15.00;99.90;;;;;;5057693;28;20082;-65
2021/06/11 04:25:34;;;;;;;5.28;4.72;;;14.90;99.90;;;;;;5057359;28;20104;-64
2021/06/11 04:28:02;;;;;;;5.65;4.35;;;15.00;99.90;;;;;;5057427;28;20036;-64
2021/06/11 04:30:28;;;;;;;4.85;4.38;;;14.90;99.90;;;;;;5057414;28;20032;-64
2021/06/11 04:32:55;;;;;;;4.78;4.35;;;14.90;99.90;;;;;;5057545;28;20112;-64
2021/06/11 04:35:26;;;;;;;11.50;5.13;;;14.90;99.90;;;;;;5057527;28;20028;-64
2021/06/11 04:37:55;;;;;;;6.40;5.40;;;14.90;99.90;;;;;;5056922;28;20024;-64
2021/06/11 04:40:21;;;;;;;5.90;5.20;;;14.90;99.90;;;;;;5056714;28;20456;-65
2021/06/11 04:42:47;;;;;;;10.00;5.57;;;15.00;99.90;;;;;;5057069;28;20017;-64
2021/06/11 04:45:13;;;;;;;6.72;5.20;;;14.90;99.90;;;;;;5057342;28;20055;-64
2021/06/11 04:47:39;;;;;;;8.50;5.70;;;15.00;99.90;;;;;;5057152;28;20035;-64
2021/06/11 04:50:06;;;;;;;6.03;4.97;;;15.00;99.90;;;;;;5057132;28;20029;-64
2021/06/11 04:52:32;;;;;;;7.32;5.32;;;15.00;99.90;;;;;;5056672;28;20456;-64
2021/06/11 04:54:58;;;;;;;5.28;4.78;;;15.00;99.90;;;;;;5057119;28;20058;-65
2021/06/11 04:57:24;;;;;;;5.63;4.53;;;15.10;99.90;;;;;;5057015;28;20017;-65
2021/06/11 04:59:50;;;;;;;5.57;4.63;;;15.00;99.90;;;;;;5057059;28;20021;-64
2021/06/11 05:02:15;;;;;;;6.32;5.03;;;15.20;99.90;;;;;;5056781;28;20025;-65
2021/06/11 05:04:41;;;;;;;9.23;5.25;;;15.20;99.90;;;;;;5056954;28;20029;-64
2021/06/11 05:07:07;;;;;;;5.65;4.88;;;15.20;99.90;;;;;;5056499;28;20025;-65
2021/06/11 05:09:33;;;;;;;7.53;4.82;;;15.30;99.90;;;;;;5056697;28;20095;-65
2021/06/11 05:11:59;;;;;;;5.20;4.68;;;15.30;99.90;;;;;;5056848;28;20025;-64
2021/06/11 05:14:25;;;;;;;5.65;5.15;;;15.40;99.90;;;;;;5046385;28;20501;-67
2021/06/11 05:16:51;;;;;;;6.07;4.20;;;15.50;99.90;;;;;;5050394;28;20017;-56
2021/06/11 05:19:17;;;;;;;4.72;4.32;;;15.40;99.90;;;;;;5057364;28;20044;-54
2021/06/11 05:21:43;;;;;;;5.95;4.95;;;15.60;99.90;;;;;;5055018;28;20025;-55
2021/06/11 05:24:09;;;;;;;5.75;4.85;;;15.70;99.90;;;;;;5062705;28;20053;-54
2021/06/11 05:26:35;;;;;;;7.38;4.22;;;15.70;99.90;;;;;;5056568;28;20032;-56
2021/06/11 05:29:02;;;;;;;6.65;4.25;;;15.80;99.90;;;;;;5056140;28;20109;-54
2021/06/11 05:31:28;;;;;;;6.60;5.03;;;15.80;99.90;;;;;;5058341;28;20033;-56
2021/06/11 05:33:53;;;;;;;4.75;4.35;;;15.80;99.90;;;;;;5056313;28;20033;-56
2021/06/11 05:36:19;;;;;;;5.55;4.53;;;15.80;99.90;;;;;;5055639;28;20428;-65
2021/06/11 05:38:45;;;;;;;5.63;4.45;;;15.90;99.90;;;;;;5054854;28;20082;-65
2021/06/11 05:41:11;;;;;;;6.65;5.13;;;15.90;99.90;;;;;;5055424;28;20028;-65
2021/06/11 05:43:37;;;;;;;5.45;4.95;;;16.00;99.90;;;;;;5056416;28;20401;-65
2021/06/11 05:46:03;;;;;;;5.00;4.28;;;16.00;99.90;;;;;;5056243;28;20397;-65
2021/06/11 05:48:29;;;;;;;6.78;4.82;;;16.00;99.90;;;;;;5056297;28;20033;-65
2021/06/11 05:50:56;;;;;;;6.03;4.20;;;16.10;99.90;;;;;;5057115;28;20017;-65
2021/06/11 05:53:22;;;;;;;5.68;4.75;;;16.20;99.90;;;;;;5059832;28;20091;-65
2021/06/11 05:55:52;;;;;;;9.15;4.95;;;16.30;99.90;;;;;;5060353;28;20021;-65
2021/06/11 05:58:18;;;;;;;5.97;3.90;;;16.30;99.90;;;;;;5060382;28;20036;-64
2021/06/11 06:00:44;;;;;;;6.95;4.93;;;16.30;99.90;;;;;;5063834;28;20053;-65
2021/06/11 06:03:10;;;;;;;8.02;4.40;;;16.40;99.90;;;;;;5060117;28;20040;-65
2021/06/11 06:05:36;;;;;;;5.05;4.45;;;16.40;99.90;;;;;;5060244;28;20104;-64
2021/06/11 06:08:02;;;;;;;5.45;4.25;;;16.50;99.90;;;;;;5059732;28;20489;-65
2021/06/11 06:10:28;;;;;;;6.85;4.90;;;16.60;99.90;;;;;;5060231;28;20029;-64
2021/06/11 06:12:53;;;;;;;5.15;4.65;;;16.60;99.90;;;;;;5060068;28;20025;-64
2021/06/11 06:15:19;;;;;;;4.65;4.18;;;16.70;99.90;;;;;;5060284;28;20028;-64
2021/06/11 06:17:45;;;;;;;4.75;4.35;;;16.80;99.90;;;;;;5059710;28;20017;-65
2021/06/11 06:20:12;;;;;;;6.28;3.80;;;16.90;99.90;;;;;;5059816;28;20096;-65
2021/06/11 06:22:39;;;;;;;6.40;3.95;;;16.90;99.90;;;;;;5059433;28;20021;-65
2021/06/11 06:25:06;;;;;;;4.90;4.50;;;17.00;99.90;;;;;;5059528;28;20037;-64
2021/06/11 06:27:34;;;;;;;5.28;4.53;;;17.10;99.90;;;;;;5059685;28;20403;-65
2021/06/11 06:29:59;;;;;;;4.35;3.95;;;17.20;99.90;;;;;;5059857;28;20079;-65
2021/06/11 06:32:29;;;;;;;5.07;4.47;;;17.30;99.90;;;;;;5059644;28;20025;-65
2021/06/11 06:34:55;;;;;;;6.32;4.70;;;17.30;99.90;;;;;;5060049;28;20025;-65
2021/06/11 06:37:21;;;;;;;5.70;4.70;;;17.30;99.90;;;;;;5059291;28;20021;-65
2021/06/11 06:39:47;;;;;;;4.60;4.20;;;17.30;99.90;;;;;;5059398;28;20078;-65
2021/06/11 06:42:13;;;;;;;4.55;3.50;;;17.40;99.90;;;;;;5059421;28;20107;-65
2021/06/11 06:44:39;;;;;;;4.40;3.92;;;17.60;99.90;;;;;;5059675;28;20389;-65
2021/06/11 06:47:05;;;;;;;3.42;3.13;;;17.90;99.90;;;;;;5059315;28;20036;-64
2021/06/11 06:49:34;;;;;;;3.80;3.50;;;18.20;99.90;;;;;;5059303;28;20032;-65
2021/06/11 06:52:01;;;;;;;4.90;4.18;;;18.50;99.90;;;;;;5059013;28;20024;-65
2021/06/11 06:54:27;;;;;;;4.25;3.85;;;18.60;99.90;;;;;;5059289;28;20390;-65
2021/06/11 06:56:53;;;;;;;6.30;3.65;;;18.60;99.90;;;;;;5059345;28;20109;-64
2021/06/11 06:59:21;;;;;;;3.85;3.55;;;18.60;99.90;;;;;;5059486;28;20049;-65
2021/06/11 07:01:48;;;;;;;3.90;3.58;;;18.60;99.90;;;;;;5059314;28;20036;-65
2021/06/11 07:04:14;;;;;;;3.95;3.65;;;18.70;99.90;;;;;;5058548;28;20033;-65
2021/06/11 07:06:40;;;;;;;4.78;3.38;;;18.80;99.90;;;;;;5058763;28;20033;-65
2021/06/11 07:09:08;;;;;;;5.65;3.67;;;19.00;99.90;;;;;;5058897;28;20025;-64
2021/06/11 07:11:34;;;;;;;4.22;3.85;;;19.20;99.90;;;;;;5058800;28;20500;-65
2021/06/11 07:14:00;;;;;;;3.05;2.83;;;19.50;99.90;;;;;;5059101;28;20021;-65
2021/06/11 07:16:25;;;;;;;3.22;2.95;;;19.80;99.90;;;;;;5058804;28;20021;-65
2021/06/11 07:18:51;;;;;;;3.05;2.85;;;20.10;99.90;;;;;;5058882;28;20028;-65
2021/06/11 07:21:17;;;;;;;3.47;3.13;;;20.40;99.90;;;;;;5058762;28;20029;-65
2021/06/11 07:23:43;;;;;;;3.20;2.90;;;20.40;99.90;;;;;;5058308;28;20033;-65
2021/06/11 07:26:09;;;;;;;4.07;3.08;;;20.20;99.90;;;;;;5058668;28;20116;-65
2021/06/11 07:28:37;;;;;;;4.00;3.60;;;19.90;99.90;;;;;;5058593;28;20567;-64
2021/06/11 07:31:04;;;;;;;7.00;3.55;;;19.80;99.90;;;;;;5058692;28;20036;-65
2021/06/11 07:33:31;;;;;;;3.42;3.13;;;20.20;99.90;;;;;;5058473;28;20024;-65
2021/06/11 07:35:58;;;;;;;3.55;3.15;;;20.60;99.90;;;;;;5058600;28;20036;-65
2021/06/11 07:38:25;;;;;;;4.30;3.88;;;20.50;99.90;;;;;;5057993;28;20388;-65
2021/06/11 07:40:53;;;;;;;3.90;3.60;;;20.30;99.90;;;;;;5058297;28;20378;-65
2021/06/11 07:43:20;;;;;;;2.55;2.35;;;20.50;99.90;;;;;;5058339;28;20070;-65
2021/06/11 07:45:46;;;;;;;3.70;3.40;;;20.80;99.90;;;;;;5058332;28;20025;-65
2021/06/11 07:48:12;;;;;;;5.60;3.33;;;21.10;99.90;;;;;;5058124;28;20029;-65
2021/06/11 07:50:38;;;;;;;4.70;3.17;;;21.10;99.90;;;;;;5058226;28;20074;-65
2021/06/11 07:53:04;;;;;;;4.05;3.22;;;21.20;99.90;;;;;;5058036;28;20350;-65
2021/06/11 07:55:31;;;;;;;5.63;3.13;;;21.80;99.90;;;;;;5058158;28;20032;-65
2021/06/11 07:57:58;;;;;;;2.90;2.67;;;22.40;99.90;;;;;;5058203;28;20017;-65
2021/06/11 08:00:24;;;;;;;3.75;2.50;;;23.20;99.90;;;;;;5058289;28;20031;-65
2021/06/11 08:03:01;;;;;;;3.30;2.80;;;23.60;99.90;;;;;;5058053;28;20025;-65
2021/06/11 08:05:28;;;;;;;3.10;2.50;;;23.80;99.90;;;;;;5058033;28;20025;-65
2021/06/11 08:07:55;;;;;;;2.70;2.50;;;24.30;99.90;;;;;;5057656;28;20044;-65
2021/06/11 08:10:22;;;;;;;3.28;2.42;;;24.60;99.90;;;;;;5057714;28;20131;-65
2021/06/11 08:12:48;;;;;;;2.40;2.20;;;24.90;99.90;;;;;;5057864;28;20071;-65
2021/06/11 08:15:14;;;;;;;2.88;2.58;;;24.40;99.90;;;;;;5056641;28;20021;-65
2021/06/11 08:17:40;;;;;;;3.45;2.50;;;24.30;99.90;;;;;;5057777;28;20109;-65
2021/06/11 08:20:09;;;;;;;3.33;2.08;;;24.60;99.90;;;;;;5057512;28;20056;-65
2021/06/11 08:22:37;;;;;;;2.72;2.53;;;25.40;99.90;;;;;;5057488;28;20028;-65
2021/06/11 08:25:08;;;;;;;2.10;1.92;;;25.80;99.90;;;;;;5057301;28;20102;-65
2021/06/11 08:27:34;;;;;;;2.35;2.15;;;26.40;99.90;;;;;;5057418;28;20393;-65
2021/06/11 08:30:00;;;;;;;2.20;2.00;;;26.80;99.90;;;;;;5057487;28;20033;-65
2021/06/11 08:32:26;;;;;;;2.35;2.15;;;27.30;99.90;;;;;;5057684;28;20033;-65
2021/06/11 08:34:52;;;;;;;3.58;2.47;;;27.20;99.90;;;;;;5057448;28;20438;-65
2021/06/11 08:37:20;;;;;;;2.20;2.00;;;26.80;99.90;;;;;;5057211;28;20626;-65
2021/06/11 08:39:52;;;;;;;2.05;1.80;;;26.70;99.90;;;;;;5057144;28;20088;-65
2021/06/11 08:42:29;;;;;;;1.95;1.75;;;26.80;99.90;;;;;;5057454;28;20037;-65
2021/06/11 08:45:04;;;;;;;1.27;1.17;;;27.50;99.90;;;;;;5057666;28;20036;-65
2021/06/11 08:47:31;;;;;;;7.30;2.40;;;27.70;99.90;;;;;;5057049;28;20028;-65
2021/06/11 08:49:58;;;;;;;1.95;1.33;;;28.20;99.90;;;;;;5057479;28;20032;-65
2021/06/11 08:52:24;;;;;;;1.42;1.33;;;28.70;99.90;;;;;;5056923;28;20052;-66
2021/06/11 08:54:51;;;;;;;1.65;1.55;;;29.10;99.90;;;;;;5057000;28;20022;-65
2021/06/11 08:57:19;;;;;;;3.25;1.60;;;29.10;99.10;;;;;;5056959;28;20051;-66
2021/06/11 08:59:46;;;;;;;1.38;1.17;;;29.20;97.60;;;;;;5057009;28;20049;-65
2021/06/11 09:02:12;;;;;;;1.48;1.23;;;29.30;99.10;;;;;;5056862;28;20029;-66
2021/06/11 09:04:46;;;;;;;1.30;1.15;;;29.70;97.90;;;;;;5056853;28;20051;-66
2021/06/11 09:07:20;;;;;;;0.90;0.68;;;30.00;97.20;;;;;;5056669;28;20036;-66
2021/06/11 09:09:54;;;;;;;5.13;1.27;;;30.50;95.90;;;;;;5056802;28;20025;-66
2021/06/11 09:12:31;;;;;;;3.85;0.95;;;30.90;96.10;;;;;;5057029;28;20454;-66
2021/06/11 09:15:00;;;;;;;1.95;1.67;;;31.20;95.30;;;;;;5056742;28;20064;-65
2021/06/11 09:17:50;;;;;;;0.80;0.70;;;31.50;93.50;;;;;;5056908;28;20025;-65
2021/06/11 09:20:28;;;;;;;1.15;0.82;;;31.70;93.80;;;;;;5056566;28;20017;-66
2021/06/11 09:22:56;;;;;;;1.40;1.30;;;32.20;92.90;;;;;;5056393;28;20496;-65
2021/06/11 09:25:30;;;;;;;1.42;0.90;;;32.40;91.20;;;;;;5056399;28;20570;-65
2021/06/11 09:27:58;;;;;;;1.52;1.13;;;32.10;91.90;;;;;;5056404;28;20032;-65
2021/06/11 09:30:55;;;;;;;2.30;1.15;;;32.20;91.40;;;;;;5056830;28;20025;-65
2021/06/11 09:33:23;;;;;;;1.27;1.17;;;32.50;89.50;;;;;;5060234;28;20040;-65
2021/06/11 09:35:55;;;;;;;1.35;0.77;;;32.20;89.20;;;;;;5056489;28;20029;-65
2021/06/11 09:38:26;;;;;;;1.10;1.02;;;32.60;90.10;;;;;;5056342;28;20028;-65
2021/06/11 09:40:58;;;;;;;1.20;1.10;;;32.40;87.90;;;;;;5056381;28;20536;-65
2021/06/11 09:43:26;;;;;;;3.10;0.70;;;32.70;88.90;;;;;;5055362;28;20071;-65
2021/06/11 09:46:18;;;;;;;0.88;0.60;;;33.10;89.00;;;;;;5056360;28;20084;-65
2021/06/11 09:48:47;;;;;;;1.25;1.10;;;33.60;87.10;;;;;;5055996;28;20124;-65
2021/06/11 09:51:18;;;;;;;2.72;0.85;;;33.80;86.90;;;;;;5056522;28;20025;-65
2021/06/11 09:53:44;;;;;;;0.77;0.70;;;34.00;85.70;;;;;;5056382;28;20021;-65
2021/06/11 09:56:19;;;;;;;1.23;0.98;;;34.40;86.10;;;;;;5056454;28;20021;-65
2021/06/11 09:58:45;;;;;;;1.67;1.02;;;34.60;83.50;;;;;;5056155;28;20025;-65
2021/06/11 10:01:12;;;;;;;3.88;0.90;;;34.70;83.30;;;;;;5056474;28;20029;-65
2021/06/11 10:03:39;;;;;;;2.83;1.02;;;34.30;81.20;;;;;;5056209;28;20049;-65
2021/06/11 10:06:12;;;;;;;4.43;1.23;;;34.30;81.60;;;;;;5056146;28;20382;-65
2021/06/11 10:08:39;;;;;;;2.63;1.33;;;33.70;80.90;;;;;;5055719;28;20401;-65
2021/06/11 10:11:07;;;;;;;2.63;1.50;;;33.60;79.70;;;;;;5056207;28;20460;-65
2021/06/11 10:13:34;;;;;;;2.15;1.30;;;33.10;80.40;;;;;;5056130;28;20032;-65
2021/06/11 10:16:06;;;;;;;1.27;1.17;;;33.10;83.20;;;;;;5056350;28;20474;-65
2021/06/11 10:18:32;;;;;;;1.77;1.20;;;33.60;81.90;;;;;;5056131;28;20045;-65
2021/06/11 10:20:58;;;;;;;1.88;1.30;;;33.10;80.40;;;;;;5056278;28;20021;-65
2021/06/11 10:23:26;;;;;;;1.38;1.27;;;32.50;82.50;;;;;;5055813;28;20029;-66
2021/06/11 10:25:54;;;;;;;1.85;1.63;;;32.50;82.10;;;;;;5056311;28;20033;-65
2021/06/11 10:28:36;;;;;;;2.08;1.25;;;32.50;82.00;;;;;;5055767;28;20036;-65
2021/06/11 10:31:05;;;;;;;4.20;1.40;;;33.10;82.20;;;;;;5056018;28;20021;-65
2021/06/11 10:34:01;;;;;;;2.47;0.90;;;33.50;81.50;;;;;;5056250;28;20025;-65
2021/06/11 10:36:27;;;;;;;1.55;0.98;;;33.80;81.50;;;;;;5055616;28;20021;-65
2021/06/11 10:39:01;;;;;;;1.10;1.00;;;34.50;81.10;;;;;;5057659;28;20024;-65
2021/06/11 10:41:48;;;;;;;1.75;1.02;;;34.60;78.30;;;;;;5059898;28;20039;-65
2021/06/11 10:44:29;;;;;;;1.08;0.77;;;35.00;79.40;;;;;;5059309;28;20041;-65
2021/06/11 10:47:15;;;;;;;1.50;1.00;;;35.30;78.10;;;;;;5059626;28;20025;-65
2021/06/11 10:49:59;;;;;;;1.38;1.00;;;35.80;76.70;;;;;;5059268;28;20112;-65
2021/06/11 10:52:32;;;;;;;2.25;1.15;;;36.20;75.10;;;;;;5059188;28;20087;-65
2021/06/11 10:55:13;;;;;;;3.25;1.30;;;36.30;75.70;;;;;;5059395;28;20444;-65
2021/06/11 10:57:43;;;;;;;2.42;1.10;;;36.70;74.90;;;;;;5059342;28;20075;-65
2021/06/11 11:00:27;;;;;;;1.50;1.33;;;37.00;74.70;;;;;;5059201;28;20041;-65
2021/06/11 11:02:58;;;;;;;1.10;1.00;;;36.60;71.70;;;;;;5059249;28;20362;-66
2021/06/11 11:05:34;;;;;;;2.78;1.30;;;36.40;71.80;;;;;;5059155;28;20041;-65
2021/06/11 11:08:02;;;;;;;1.20;1.13;;;36.30;71.30;;;;;;5058631;28;20033;-65
2021/06/11 11:10:48;;;;;;;3.90;1.55;;;36.10;71.80;;;;;;5059002;28;20018;-65
2021/06/11 11:13:15;;;;;;;2.60;1.35;;;35.30;70.90;;;;;;5058868;28;20028;-65
2021/06/11 11:15:44;;;;;;;0.93;0.88;;;35.00;73.50;;;;;;5059087;28;20017;-65
2021/06/11 11:18:20;;;;;;;1.20;0.93;;;34.90;73.50;;;;;;5058607;28;20056;-65
2021/06/11 11:20:46;;;;;;;1.17;1.00;;;35.30;73.00;;;;;;5059111;28;20033;-65
2021/06/11 11:23:24;;;;;;;1.55;1.05;;;35.90;72.00;;;;;;5058351;28;20463;-65
2021/06/11 11:25:51;;;;;;;0.88;0.80;;;36.40;72.20;;;;;;5058710;28;20041;-65
2021/06/11 11:28:18;;;;;;;2.90;0.73;;;36.90;70.00;;;;;;5058444;28;20489;-65
2021/06/11 11:30:46;;;;;;;1.23;0.80;;;37.00;69.30;;;;;;5058924;28;20025;-65
2021/06/11 11:33:13;;;;;;;0.55;0.47;;;37.40;67.10;;;;;;5058466;28;20542;-65
2021/06/11 11:35:43;;;;;;;0.80;0.60;;;37.90;67.80;;;;;;5058531;28;20096;-65
2021/06/11 11:38:10;;;;;;;0.88;0.52;;;38.10;66.10;;;;;;5058534;28;20018;-65
2021/06/11 11:40:38;;;;;;;1.50;0.75;;;37.50;65.20;;;;;;5058236;28;20033;-65
2021/06/11 11:43:04;;;;;;;2.05;0.93;;;37.40;66.50;;;;;;5058428;28;20036;-65
2021/06/11 11:45:32;;;;;;;1.50;0.68;;;37.70;67.20;;;;;;5058481;28;20473;-66
2021/06/11 11:48:00;;;;;;;0.80;0.80;;;38.20;66.90;;;;;;5058260;28;20064;-65
2021/06/11 11:50:28;;;;;;;0.90;0.90;;;37.70;63.50;;;;;;5058282;28;20104;-65
2021/06/11 11:52:55;;;;;;;0.50;0.50;;;37.40;65.30;;;;;;5058199;28;20021;-65
2021/06/11 11:55:22;;;;;;;0.65;0.60;;;37.70;66.40;;;;;;5058283;28;20103;-65
2021/06/11 11:57:48;;;;;;;2.63;0.90;;;38.20;66.80;;;;;;5058149;28;20025;-65
2021/06/11 12:00:15;;;;;;;1.52;0.57;;;38.50;65.10;;;;;;5058068;28;20031;-65
2021/06/11 12:02:43;;;;;;;0.98;0.57;;;38.70;64.70;;;;;;5058134;28;20028;-65
2021/06/11 12:05:10;;;;;;;1.02;0.60;;;38.70;63.90;;;;;;5058150;28;20082;-65
2021/06/11 12:07:36;;;;;;;0.70;0.70;;;39.10;63.10;;;;;;5057902;28;20024;-65
2021/06/11 12:10:03;;;;;;;0.63;0.60;;;39.50;63.50;;;;;;5057561;28;20028;-65
2021/06/11 12:12:29;;;;;;;3.45;0.70;;;39.70;63.00;;;;;;5058035;28;20084;-65
2021/06/11 12:14:55;;;;;;;2.65;0.55;;;39.60;62.60;;;;;;5057793;28;20501;-66
2021/06/11 12:17:21;;;;;;;3.40;0.63;;;40.10;63.00;;;;;;5057816;28;20021;-65
2021/06/11 12:19:47;;;;;;;3.17;0.70;;;40.10;61.30;;;;;;5057533;28;20440;-66
2021/06/11 12:22:14;;;;;;;0.98;0.40;;;40.10;61.90;;;;;;5057523;28;20028;-66
2021/06/11 12:24:41;;;;;;;1.00;0.50;;;40.10;60.00;;;;;;5057301;28;20072;-66
2021/06/11 12:27:07;;;;;;;3.03;0.40;;;39.60;58.00;;;;;;5057631;28;20413;-66
2021/06/11 12:29:34;;;;;;;1.15;0.70;;;38.90;59.70;;;;;;5057598;28;20036;-66
2021/06/11 12:32:00;;;;;;;2.40;0.47;;;39.20;60.80;;;;;;5057707;28;20029;-66
2021/06/11 12:34:26;;;;;;;1.52;0.68;;;39.60;60.40;;;;;;5057446;28;20479;-65
2021/06/11 12:36:52;;;;;;;1.85;0.63;;;40.00;58.40;;;;;;5057359;28;20040;-66
2021/06/11 12:39:18;;;;;;;0.35;0.30;;;40.00;58.70;;;;;;5057123;28;20029;-66
2021/06/11 12:41:44;;;;;;;0.40;0.40;;;40.30;59.30;;;;;;5057390;28;20060;-64
2021/06/11 12:46:46;;;;;;;2.25;0.50;;;40.40;57.40;;;;;;5057439;28;20040;-64
2021/06/11 12:49:12;;;;;;;0.75;0.40;;;40.30;57.90;;;;;;5057024;28;20064;-64
2021/06/11 12:51:38;;;;;;;0.65;0.30;;;40.20;59.10;;;;;;5057116;28;20028;-65
2021/06/11 12:54:04;;;;;;;0.60;0.55;;;40.70;59.50;;;;;;5056776;28;20104;-64
2021/06/11 12:56:31;;;;;;;0.40;0.32;;;41.10;58.20;;;;;;5057168;28;20032;-64
2021/06/11 12:58:57;;;;;;;0.52;0.50;;;41.20;58.20;;;;;;5057000;28;20063;-65